Time;durP1;ratioP1;P1;durP2;ratioP2;P2;SDS_P1;SDS_P2;PMS_P1;PMS_P2;Temp;Humidity;BMP_temperature;BMP_pressure;BME280_temperature;BME280_humidity;BME280_pressure;Samples;Min_cycle;Max_cycle;Signal;HPM_P1;HPM_P2
2021/03/09 00:07:54;;;;;;;;;;;;;;;;;;20979189;28;1043;-31
2021/03/09 00:18:29;;;;;;;;;;;;;;;;;;20967902;28;1906;-33
2021/03/09 00:28:50;;;;;;;;;;;;;;;;;;20950720;28;1033;-29
2021/03/09 00:39:24;;;;;;;;;;;;;;;;;;20966689;28;1898;-34
2021/03/09 00:49:45;;;;;;;;;;;;;;;;;;20963549;28;1601;-34
2021/03/09 01:00:06;;;;;;;;;;;;;;;;;;20931504;28;1983;-35
2021/03/09 01:10:27;;;;;;;;;;;;;;;;;;20866500;28;1160;-33
2021/03/09 01:20:48;;;;;;;;;;;;;;;;;;20858115;28;1980;-33
2021/03/09 01:31:10;;;;;;;;;;;;;;;;;;20880272;28;1201;-33
2021/03/09 01:41:30;;;;;;;;;;;;;;;;;;20895798;28;1975;-31
2021/03/09 01:52:06;;;;;;;;;;;;;;;;;;20894776;28;1484;-34
2021/03/09 02:02:27;;;;;;;;;;;;;;;;;;20928719;28;1902;-34
2021/03/09 02:12:54;;;;;;;;;;;;;;;;;;20973971;28;1024;-29
2021/03/09 02:23:33;;;;;;;;;;;;;;;;;;20958199;28;1902;-30
2021/03/09 02:34:12;;;;;;;;;;;;;;;;;;20973237;28;1576;-32
2021/03/09 02:44:48;;;;;;;;;;;;;;;;;;20956934;28;1154;-32
2021/03/09 02:55:24;;;;;;;;;;;;;;;;;;20958806;28;1902;-33
2021/03/09 03:06:00;;;;;;;;;;;;;;;;;;20878076;28;1234;-32
2021/03/09 03:16:22;;;;;;;;;;;;;;;;;;20886339;28;1931;-30
2021/03/09 03:26:44;;;;;;;;;;;;;;;;;;20871483;28;1071;-28
2021/03/09 03:37:05;;;;;;;;;;;;;;;;;;20884902;28;1995;-33
2021/03/09 03:47:26;;;;;;;;;;;;;;;;;;20883990;28;1205;-31
2021/03/09 03:58:05;;;;;;;;;;;;;;;;;;20899552;28;1988;-32
2021/03/09 04:08:25;;;;;;;;;;;;;;;;;;20968443;28;1042;-33
2021/03/09 04:18:47;;;;;;;;;;;;;;;;;;20965618;28;1991;-33
2021/03/09 04:29:11;;;;;;;;;;;;;;;;;;20950906;28;1447;-31
2021/03/09 04:39:46;;;;;;;;;;;;;;;;;;20952945;28;1970;-28
2021/03/09 04:50:12;;;;;;;;;;;;;;;;;;20966437;28;1283;-36
2021/03/09 05:00:47;;;;;;;;;;;;;;;;;;20929193;28;1988;-33
2021/03/09 05:11:08;;;;;;;;;;;;;;;;;;20895304;28;1129;-33
2021/03/09 05:21:42;;;;;;;;;;;;;;;;;;20896872;28;1898;-32
2021/03/09 05:32:17;;;;;;;;;;;;;;;;;;20893718;28;1282;-30
2021/03/09 05:42:38;;;;;;;;;;;;;;;;;;20889642;28;2885;-33
2021/03/09 05:53:13;;;;;;;;;;;;;;;;;;20868507;28;1231;-32
2021/03/09 06:03:34;;;;;;;;;;;;;;;;;;20939905;28;1886;-30
2021/03/09 06:14:15;;;;;;;;;;;;;;;;;;20952984;28;1255;-28
2021/03/09 06:24:35;;;;;;;;;;;;;;;;;;20973485;28;1914;-34
2021/03/09 06:35:28;;;;;;;;;;;;;;;;;;20968677;28;1977;-32
2021/03/09 06:45:49;;;;;;;;;;;;;;;;;;20968216;28;1057;-30
2021/03/09 06:56:26;;;;;;;;;;;;;;;;;;20976443;28;1983;-31
2021/03/09 07:06:47;;;;;;;;;;;;;;;;;;20867939;28;1150;-30
2021/03/09 07:17:23;;;;;;;;;;;;;;;;;;20882403;28;1982;-33
2021/03/09 07:27:49;;;;;;;;;;;;;;;;;;20879948;28;1317;-32
2021/03/09 07:38:10;;;;;;;;;;;;;;;;;;20881501;28;1953;-33
2021/03/09 07:48:31;;;;;;;;;;;;;;;;;;20878417;28;1323;-33
2021/03/09 07:59:04;;;;;;;;;;;;;;;;;;20898982;28;1894;-31
2021/03/09 08:09:34;;;;;;;;;;;;;;;;;;20932190;28;1147;-31
2021/03/09 08:19:55;;;;;;;;;;;;;;;;;;20930986;28;1961;-29
2021/03/09 08:30:30;;;;;;;;;;;;;;;;;;20978396;28;1075;-32
2021/03/09 08:40:58;;;;;;;;;;;;;;;;;;20961910;28;1898;-29
2021/03/09 08:51:43;;;;;;;;;;;;;;;;;;20963052;28;1208;-28
2021/03/09 09:02:07;;;;;;;;;;;;;;;;;;20913105;28;1985;-28
2021/03/09 09:12:45;;;;;;;;;;;;;;;;;;20893315;28;1090;-29
2021/03/09 09:23:06;;;;;;;;;;;;;;;;;;20895529;28;1965;-29
2021/03/09 09:33:30;;;;;;;;;;;;;;;;;;20873778;28;1319;-29
2021/03/09 09:43:52;;;;;;;;;;;;;;;;;;20902043;28;1985;-34
2021/03/09 09:54:27;;;;;;;;;;;;;;;;;;20858916;28;1283;-32
2021/03/09 10:05:02;;;;;;;;;;;;;;;;;;20961044;28;1312;-32
2021/03/09 10:15:23;;;;;;;;;;;;;;;;;;20982706;28;1989;-30
2021/03/09 10:25:44;;;;;;;;;;;;;;;;;;20939259;28;1106;-30
2021/03/09 10:36:10;;;;;;;;;;;;;;;;;;20969013;28;1965;-33
2021/03/09 10:46:34;;;;;;;;;;;;;;;;;;20953952;28;1325;-32
2021/03/09 10:56:55;;;;;;;;;;;;;;;;;;20961706;28;1902;-32
2021/03/09 11:07:30;;;;;;;;;;;;;;;;;;20881342;28;1286;-31
2021/03/09 11:18:04;;;;;;;;;;;;;;;;;;20883686;28;1906;-33
2021/03/09 11:28:26;;;;;;;;;;;;;;;;;;20866023;28;1362;-33
2021/03/09 11:38:47;;;;;;;;;;;;;;;;;;20882012;28;1965;-27
2021/03/09 11:49:08;;;;;;;;;;;;;;;;;;20878816;28;1343;-29
2021/03/09 11:59:43;;;;;;;;;;;;;;;;;;20905813;28;1989;-28
2021/03/09 12:10:04;;;;;;;;;;;;;;;;;;20944452;28;1140;-30
2021/03/09 12:20:40;;;;;;;;;;;;;;;;;;20959580;28;1911;-30
2021/03/09 12:31:14;;;;;;;;;;;;;;;;;;20962019;28;1228;-34
2021/03/09 12:41:36;;;;;;;;;;;;;;;;;;20930870;28;1989;-31
2021/03/09 12:51:57;;;;;;;;;;;;;;;;;;20960420;28;1311;-31
2021/03/09 13:02:31;;;;;;;;;;;;;;;;;;20908675;28;1894;-32
2021/03/09 13:12:52;;;;;;;;;;;;;;;;;;20875524;28;1278;-29
2021/03/09 13:23:26;;;;;;;;;;;;;;;;;;20892161;28;1887;-30
2021/03/09 13:34:02;;;;;;;;;;;;;;;;;;20891294;28;1149;-33
2021/03/09 13:44:22;;;;;;;;;;;;;;;;;;20873842;28;1898;-30
2021/03/09 13:54:58;;;;;;;;;;;;;;;;;;20889420;28;1240;-31
2021/03/09 14:05:20;;;;;;;;;;;;;;;;;;20812139;28;1262;-29
2021/03/09 14:15:41;;;;;;;;;;;;;;;;;;20775615;28;1983;-32
2021/03/09 14:26:02;;;;;;;;;;;;;;;;;;20817825;28;1522;-34
2021/03/09 14:36:37;;;;;;;;;;;;;;;;;;20850976;28;1991;-30
2021/03/09 14:46:57;;;;;;;;;;;;;;;;;;20890592;28;1300;-32
2021/03/09 14:57:18;;;;;;;;;;;;;;;;;;20470764;28;10000526;-32
2021/03/09 15:07:39;;;;;;;;;;;;;;;;;;20861697;28;1332;-32
2021/03/09 15:18:14;;;;;;;;;;;;;;;;;;20876855;28;1905;-34
2021/03/09 15:28:35;;;;;;;;;;;;;;;;;;20874435;28;1416;-33
2021/03/09 15:38:56;;;;;;;;;;;;;;;;;;20858756;28;1977;-34
2021/03/09 15:49:31;;;;;;;;;;;;;;;;;;20871421;28;1173;-33
2021/03/09 15:59:51;;;;;;;;;;;;;;;;;;20845574;28;1926;-29
2021/03/09 16:10:12;;;;;;;;;;;;;;;;;;20860719;28;1995;-31
2021/03/09 16:20:32;;;;;;;;;;;;;;;;;;20908532;28;2236;-34
2021/03/09 16:30:53;;;;;;;;;;;;;;;;;;20801716;28;1527;-31
2021/03/09 16:41:28;;;;;;;;;;;;;;;;;;20789163;28;1898;-35
2021/03/09 16:52:04;;;;;;;;;;;;;;;;;;20859112;28;1339;-33
2021/03/09 17:02:25;;;;;;;;;;;;;;;;;;20944053;28;1993;-33
2021/03/09 17:12:45;;;;;;;;;;;;;;;;;;20969914;28;1061;-32
2021/03/09 17:23:07;;;;;;;;;;;;;;;;;;20968537;28;1906;-36
2021/03/09 17:33:28;;;;;;;;;;;;;;;;;;20979389;28;1413;-32
2021/03/09 17:43:49;;;;;;;;;;;;;;;;;;20967228;28;1902;-31
2021/03/09 17:54:24;;;;;;;;;;;;;;;;;;20906401;28;1211;-34
2021/03/09 18:04:44;;;;;;;;;;;;;;;;;;20813425;28;2536;-36
2021/03/09 18:15:06;;;;;;;;;;;;;;;;;;20901970;28;1157;-35
2021/03/09 18:25:42;;;;;;;;;;;;;;;;;;20862795;28;1304;-30
2021/03/09 18:36:19;;;;;;;;;;;;;;;;;;20882520;28;1969;-35
2021/03/09 18:46:54;;;;;;;;;;;;;;;;;;20861324;28;1270;-35
2021/03/09 18:57:29;;;;;;;;;;;;;;;;;;20884915;28;2072;-33
2021/03/09 19:08:05;;;;;;;;;;;;;;;;;;20802295;28;1047;-35
2021/03/09 19:18:25;;;;;;;;;;;;;;;;;;20832904;28;1976;-35
2021/03/09 19:29:00;;;;;;;;;;;;;;;;;;20954750;28;1315;-40
2021/03/09 19:39:27;;;;;;;;;;;;;;;;;;20958188;28;1979;-39
2021/03/09 19:49:48;;;;;;;;;;;;;;;;;;20954199;28;1642;-38
2021/03/09 20:00:10;;;;;;;;;;;;;;;;;;20922208;28;1983;-37
2021/03/09 20:10:30;;;;;;;;;;;;;;;;;;20873169;28;1049;-40
2021/03/09 20:21:05;;;;;;;;;;;;;;;;;;20871665;28;1902;-39
2021/03/09 20:31:40;;;;;;;;;;;;;;;;;;20885634;28;1056;-39
2021/03/09 20:42:01;;;;;;;;;;;;;;;;;;20871570;28;1931;-41
2021/03/09 20:52:22;;;;;;;;;;;;;;;;;;20908759;28;1204;-34
2021/03/09 21:02:44;;;;;;;;;;;;;;;;;;20952229;28;1919;-37
2021/03/09 21:13:04;;;;;;;;;;;;;;;;;;20964733;28;1408;-39
2021/03/09 21:23:39;;;;;;;;;;;;;;;;;;20980549;28;2012;-39
2021/03/09 21:33:59;;;;;;;;;;;;;;;;;;20978902;28;1170;-34
2021/03/09 21:44:20;;;;;;;;;;;;;;;;;;20938827;28;2001;-39
2021/03/09 21:54:54;;;;;;;;;;;;;;;;;;20894548;28;1465;-37
2021/03/09 22:05:16;;;;;;;;;;;;;;;;;;20895214;28;1997;-36
2021/03/09 22:15:50;;;;;;;;;;;;;;;;;;20893550;28;1049;-40
2021/03/09 22:26:26;;;;;;;;;;;;;;;;;;20879882;28;1104;-37
2021/03/09 22:36:46;;;;;;;;;;;;;;;;;;20891413;28;1914;-40
2021/03/09 22:47:22;;;;;;;;;;;;;;;;;;20863214;28;1221;-41
2021/03/09 22:57:43;;;;;;;;;;;;;;;;;;20872758;28;1985;-31
2021/03/09 23:08:04;;;;;;;;;;;;;;;;;;20873039;28;1137;-35
2021/03/09 23:18:39;;;;;;;;;;;;;;;;;;20859709;28;1906;-36
2021/03/09 23:29:14;;;;;;;;;;;;;;;;;;20814655;28;1512;-37
2021/03/09 23:39:36;;;;;;;;;;;;;;;;;;20646111;28;18255;-32
2021/03/09 23:49:57;;;;;;;;;;;;;;;;;;20782634;28;1370;-35
